createdAt,value
2022-09-07T00:02:20.684Z,0
2022-09-07T00:07:37.878Z,0
2022-09-07T00:12:55.174Z,0
2022-09-07T00:23:32.687Z,0
2022-09-07T00:28:50.330Z,0
2022-09-07T00:34:07.561Z,0
2022-09-07T00:39:24.818Z,0
2022-09-07T00:44:42.159Z,0
2022-09-07T00:49:59.377Z,0
2022-09-07T00:55:16.520Z,0
2022-09-07T01:00:33.745Z,0
2022-09-07T01:05:59.811Z,0
2022-09-07T01:11:17.213Z,0
2022-09-07T01:16:34.549Z,0
2022-09-07T01:27:12.263Z,0
2022-09-07T01:32:29.602Z,0
2022-09-07T01:37:46.804Z,0
2022-09-07T01:43:04.096Z,0
2022-09-07T01:48:21.720Z,0
2022-09-07T01:53:39.119Z,0
2022-09-07T01:58:56.448Z,0
2022-09-07T02:04:13.604Z,0
2022-09-07T02:09:31.374Z,0
2022-09-07T02:14:52.456Z,0
2022-09-07T02:20:20.105Z,0
2022-09-07T02:25:37.531Z,0
2022-09-07T02:36:15.307Z,0
2022-09-07T02:41:32.411Z,0
2022-09-07T02:46:53.059Z,0
2022-09-07T02:52:10.549Z,0
2022-09-07T02:57:28.218Z,0
2022-09-07T03:02:45.415Z,0
2022-09-07T03:08:02.802Z,0
2022-09-07T03:18:22.385Z,0
2022-09-07T03:23:49.964Z,0
2022-09-07T03:29:09.272Z,0
2022-09-07T03:34:26.522Z,0
2022-09-07T03:39:43.689Z,0
2022-09-07T03:45:01.095Z,0
2022-09-07T03:55:35.598Z,0
2022-09-07T04:00:52.793Z,0
2022-09-07T04:06:09.927Z,0
2022-09-07T04:11:27.239Z,0
2022-09-07T04:16:47.269Z,0
2022-09-07T04:22:04.553Z,0.5
2022-09-07T04:27:21.829Z,1.5
2022-09-07T04:32:39.321Z,4.1
2022-09-07T04:37:56.533Z,10.3
2022-09-07T04:43:13.508Z,24.6
2022-09-07T04:48:31.405Z,54.2
2022-09-07T04:53:48.553Z,100.4
2022-09-07T04:59:05.405Z,166.3
2022-09-07T05:04:22.386Z,288.7
2022-09-07T05:09:39.329Z,422.5
2022-09-07T05:14:56.140Z,549.2
2022-09-07T05:20:14.596Z,805
2022-09-07T05:25:33.665Z,998.7
2022-09-07T05:36:40.739Z,1893.7
2022-09-07T05:41:57.963Z,2062.1
2022-09-07T05:47:14.843Z,2160.8
2022-09-07T05:52:32.183Z,1594.6
2022-09-07T05:57:49.758Z,1659.6
2022-09-07T06:03:13.429Z,2430
2022-09-07T06:08:35.925Z,2826.7
2022-09-07T06:13:54.460Z,4809.6
2022-09-07T06:19:11.792Z,7992.1
2022-09-07T06:24:30.425Z,10141.7
2022-09-07T06:29:47.753Z,8536.2
2022-09-07T06:35:04.595Z,7704.2
2022-09-07T06:40:21.205Z,3402.9
2022-09-07T06:45:46.730Z,2259.2
2022-09-07T06:51:04.959Z,1617.5
2022-09-07T06:56:21.780Z,2009.6
2022-09-07T07:01:38.445Z,1610.4
2022-09-07T07:06:59.904Z,1885
2022-09-07T07:17:34.977Z,6196.2
2022-09-07T07:33:31.935Z,6103.8
2022-09-07T07:44:13.043Z,7009.2
2022-09-07T07:49:33.852Z,9156.2
2022-09-07T07:54:52.353Z,11825.4
2022-09-07T08:00:09.006Z,5742.5
2022-09-07T08:05:28.977Z,23899.6
2022-09-07T08:17:08.831Z,24011.2
2022-09-07T08:22:30.705Z,23560
2022-09-07T08:27:50.155Z,20532.5
2022-09-07T08:33:07.301Z,24106.7
2022-09-07T08:38:32.354Z,26497.5
2022-09-07T08:46:27.640Z,27518.3
2022-09-07T08:51:58.774Z,28833.3
2022-09-07T08:57:23.822Z,27092.9
2022-09-07T09:26:10.190Z,12960.8
2022-09-07T09:32:02.015Z,15031.7
2022-09-07T09:37:19.669Z,12518.7
2022-09-07T09:42:35.122Z,12555
2022-09-07T09:47:51.729Z,10119.2
2022-09-07T10:04:29.891Z,25930.4
2022-09-07T10:22:16.118Z,12132.1
2022-09-07T10:27:33.019Z,9987.9
2022-09-07T10:39:26.373Z,10686.7
2022-09-07T10:44:42.694Z,13598.7
2022-09-07T10:50:49.576Z,12551.7
2022-09-07T11:02:09.303Z,8997.5
2022-09-07T14:56:15.232Z,10887.5
2022-09-07T15:01:39.568Z,7088.3
2022-09-07T15:07:03.192Z,5117.5
2022-09-07T15:12:24.849Z,5063.3
2022-09-07T15:17:44.750Z,5633.3
2022-09-07T15:23:01.971Z,6195.8
2022-09-07T15:34:09.326Z,8288.3
2022-09-07T15:39:38.676Z,8307.9
2022-09-07T15:44:56.164Z,8521.7
2022-09-07T15:50:13.099Z,8160.8
2022-09-07T15:55:40.265Z,7080.4
2022-09-07T16:06:47.860Z,5632.1
2022-09-07T16:17:53.768Z,5254.6
2022-09-07T16:23:15.132Z,5754.2
2022-09-07T16:28:32.266Z,4699.6
2022-09-07T16:34:10.207Z,3357.1
2022-09-07T16:39:26.904Z,2634.6
2022-09-07T16:44:43.918Z,2324.2
2022-09-07T16:50:00.725Z,2125
2022-09-07T16:55:17.391Z,1852.5
2022-09-07T17:00:37.597Z,1692.9
2022-09-07T17:05:54.554Z,1607.1
2022-09-07T17:11:11.487Z,1523.8
2022-09-07T17:16:28.185Z,1415.8
2022-09-07T17:21:46.300Z,1260.4
2022-09-07T17:32:24.374Z,946.7
2022-09-07T17:37:41.557Z,817.5
2022-09-07T17:48:46.209Z,545
2022-09-07T17:54:03.071Z,417.9
2022-09-07T18:05:07.522Z,199.6
2022-09-07T18:10:25.283Z,122.1
2022-09-07T18:15:42.343Z,64.6
2022-09-07T18:20:59.013Z,29.6
2022-09-07T18:26:16.329Z,12.6
2022-09-07T18:31:36.305Z,4.6
2022-09-07T18:36:56.542Z,1.7
2022-09-07T18:42:15.713Z,0.6
2022-09-07T18:47:33.039Z,0.1
2022-09-07T18:52:52.727Z,0
2022-09-07T19:04:12.298Z,0
2022-09-07T19:09:31.374Z,0
2022-09-07T19:14:51.875Z,0
2022-09-07T19:20:10.869Z,0
2022-09-07T19:25:29.283Z,0
2022-09-07T19:30:47.655Z,0
2022-09-07T19:42:16.281Z,0
2022-09-07T19:47:36.761Z,0
2022-09-07T19:52:55.078Z,0
2022-09-07T19:58:12.229Z,0
2022-09-07T20:03:29.718Z,0
2022-09-07T20:08:55.305Z,0
2022-09-07T20:14:12.630Z,0
2022-09-07T20:19:32.998Z,0
2022-09-07T20:24:50.444Z,0
2022-09-07T20:30:12.725Z,0
2022-09-07T20:35:30.120Z,0
2022-09-07T20:47:00.842Z,0
2022-09-07T20:52:21.898Z,0
2022-09-07T20:57:46.558Z,0
2022-09-07T21:03:04.337Z,0
2022-09-07T21:08:21.442Z,0
2022-09-07T21:13:38.841Z,0
2022-09-07T21:18:56.099Z,0
2022-09-07T21:24:18.457Z,0
2022-09-07T21:29:36.207Z,0
2022-09-07T21:34:53.434Z,0
2022-09-07T21:40:11.044Z,0
2022-09-07T21:50:53.690Z,0
2022-09-07T22:01:21.727Z,0
2022-09-07T22:06:39.493Z,0
2022-09-07T22:11:56.718Z,0
2022-09-07T22:17:13.983Z,0
2022-09-07T22:22:31.390Z,0
2022-09-07T22:27:48.830Z,0
2022-09-07T22:33:27.021Z,0
2022-09-07T22:38:47.899Z,0
2022-09-07T22:44:05.545Z,0
2022-09-07T22:49:23.663Z,0
2022-09-07T22:54:42.254Z,0
2022-09-07T22:59:59.877Z,0
2022-09-07T23:10:34.341Z,0
2022-09-07T23:15:51.614Z,0
2022-09-07T23:26:22.793Z,0
2022-09-07T23:31:40.169Z,0
2022-09-07T23:36:57.674Z,0
2022-09-07T23:42:18.088Z,0
2022-09-07T23:47:35.304Z,0
2022-09-07T23:52:52.618Z,0
2022-09-07T23:58:10.063Z,0
